sensor_id;sensor_type;location;lat;lon;timestamp;temperature;humidity
34726;DHT22;20951;50.818;4.344;2023-02-28T00:00:40;3.70;99.90
34726;DHT22;20951;50.818;4.344;2023-02-28T00:03:06;3.70;99.90
34726;DHT22;20951;50.818;4.344;2023-02-28T00:05:32;3.70;99.90
34726;DHT22;20951;50.818;4.344;2023-02-28T00:07:59;3.70;99.90
34726;DHT22;20951;50.818;4.344;2023-02-28T00:10:27;3.60;99.90
34726;DHT22;20951;50.818;4.344;2023-02-28T00:12:55;3.60;99.90
34726;DHT22;20951;50.818;4.344;2023-02-28T00:15:23;3.50;99.90
34726;DHT22;20951;50.818;4.344;2023-02-28T00:17:49;3.50;99.90
34726;DHT22;20951;50.818;4.344;2023-02-28T00:20:16;3.60;99.90
34726;DHT22;20951;50.818;4.344;2023-02-28T00:22:45;3.50;99.90
34726;DHT22;20951;50.818;4.344;2023-02-28T00:25:13;3.50;99.90
34726;DHT22;20951;50.818;4.344;2023-02-28T00:27:40;3.40;99.90
34726;DHT22;20951;50.818;4.344;2023-02-28T00:30:11;3.40;99.90
34726;DHT22;20951;50.818;4.344;2023-02-28T00:32:37;3.30;99.90
34726;DHT22;20951;50.818;4.344;2023-02-28T00:35:04;3.30;99.90
34726;DHT22;20951;50.818;4.344;2023-02-28T00:37:31;3.40;99.90
34726;DHT22;20951;50.818;4.344;2023-02-28T00:39:57;3.40;99.90
34726;DHT22;20951;50.818;4.344;2023-02-28T00:42:23;3.30;99.90
34726;DHT22;20951;50.818;4.344;2023-02-28T00:44:50;3.30;99.90
34726;DHT22;20951;50.818;4.344;2023-02-28T00:47:16;3.30;99.90
34726;DHT22;20951;50.818;4.344;2023-02-28T00:49:42;3.40;99.90
34726;DHT22;20951;50.818;4.344;2023-02-28T00:52:08;3.30;99.90
34726;DHT22;20951;50.818;4.344;2023-02-28T00:54:35;3.40;99.90
34726;DHT22;20951;50.818;4.344;2023-02-28T00:57:01;3.40;99.90
34726;DHT22;20951;50.818;4.344;2023-02-28T00:59:27;3.30;99.90
34726;DHT22;20951;50.818;4.344;2023-02-28T01:01:53;3.20;99.90
34726;DHT22;20951;50.818;4.344;2023-02-28T01:04:19;3.20;99.90
34726;DHT22;20951;50.818;4.344;2023-02-28T01:06:46;3.10;99.90
34726;DHT22;20951;50.818;4.344;2023-02-28T01:09:12;3.10;99.90
34726;DHT22;20951;50.818;4.344;2023-02-28T01:11:38;3.10;99.90
34726;DHT22;20951;50.818;4.344;2023-02-28T01:14:06;3.10;99.90
34726;DHT22;20951;50.818;4.344;2023-02-28T01:16:32;3.00;99.90
34726;DHT22;20951;50.818;4.344;2023-02-28T01:18:58;3.00;99.90
34726;DHT22;20951;50.818;4.344;2023-02-28T01:21:24;2.90;99.90
34726;DHT22;20951;50.818;4.344;2023-02-28T01:23:51;2.80;99.90
34726;DHT22;20951;50.818;4.344;2023-02-28T01:26:20;2.80;99.90
34726;DHT22;20951;50.818;4.344;2023-02-28T01:28:46;2.70;99.90
34726;DHT22;20951;50.818;4.344;2023-02-28T01:31:13;2.70;99.90
34726;DHT22;20951;50.818;4.344;2023-02-28T01:33:40;2.70;99.90
34726;DHT22;20951;50.818;4.344;2023-02-28T01:36:12;2.70;99.90
34726;DHT22;20951;50.818;4.344;2023-02-28T01:38:38;2.80;99.90
34726;DHT22;20951;50.818;4.344;2023-02-28T01:41:05;2.70;99.90
34726;DHT22;20951;50.818;4.344;2023-02-28T01:43:58;2.80;99.90
34726;DHT22;20951;50.818;4.344;2023-02-28T01:46:19;2.80;99.90
34726;DHT22;20951;50.818;4.344;2023-02-28T01:49:12;2.70;99.90
34726;DHT22;20951;50.818;4.344;2023-02-28T01:51:45;2.70;99.90
34726;DHT22;20951;50.818;4.344;2023-02-28T01:54:31;2.70;99.90
34726;DHT22;20951;50.818;4.344;2023-02-28T01:57:07;2.70;99.90
34726;DHT22;20951;50.818;4.344;2023-02-28T01:59:38;2.70;99.90
34726;DHT22;20951;50.818;4.344;2023-02-28T02:02:12;2.80;99.90
34726;DHT22;20951;50.818;4.344;2023-02-28T02:04:41;2.70;99.90
34726;DHT22;20951;50.818;4.344;2023-02-28T02:07:10;2.60;99.90
34726;DHT22;20951;50.818;4.344;2023-02-28T02:09:36;2.60;99.90
34726;DHT22;20951;50.818;4.344;2023-02-28T02:12:18;2.70;99.90
34726;DHT22;20951;50.818;4.344;2023-02-28T02:15:14;2.60;99.90
34726;DHT22;20951;50.818;4.344;2023-02-28T02:17:47;2.60;99.90
34726;DHT22;20951;50.818;4.344;2023-02-28T02:23:20;2.70;99.90
34726;DHT22;20951;50.818;4.344;2023-02-28T02:31:47;2.50;99.90
34726;DHT22;20951;50.818;4.344;2023-02-28T02:37:12;2.30;99.90
34726;DHT22;20951;50.818;4.344;2023-02-28T02:45:23;2.40;99.90
34726;DHT22;20951;50.818;4.344;2023-02-28T02:47:50;2.40;99.90
34726;DHT22;20951;50.818;4.344;2023-02-28T02:50:25;2.40;99.90
34726;DHT22;20951;50.818;4.344;2023-02-28T02:52:56;2.30;99.90
34726;DHT22;20951;50.818;4.344;2023-02-28T02:55:23;2.30;99.90
34726;DHT22;20951;50.818;4.344;2023-02-28T02:58:02;2.20;99.90
34726;DHT22;20951;50.818;4.344;2023-02-28T03:00:40;2.20;99.90
34726;DHT22;20951;50.818;4.344;2023-02-28T03:03:09;2.20;99.90
34726;DHT22;20951;50.818;4.344;2023-02-28T03:05:48;2.20;99.90
34726;DHT22;20951;50.818;4.344;2023-02-28T03:08:15;2.20;99.90
34726;DHT22;20951;50.818;4.344;2023-02-28T03:10:43;2.10;99.90
34726;DHT22;20951;50.818;4.344;2023-02-28T03:13:49;2.20;99.90
34726;DHT22;20951;50.818;4.344;2023-02-28T03:16:36;2.10;99.90
34726;DHT22;20951;50.818;4.344;2023-02-28T03:31:16;2.00;99.90
34726;DHT22;20951;50.818;4.344;2023-02-28T03:33:59;1.80;99.90
34726;DHT22;20951;50.818;4.344;2023-02-28T03:36:28;1.90;99.90
34726;DHT22;20951;50.818;4.344;2023-02-28T03:39:05;1.80;99.90
34726;DHT22;20951;50.818;4.344;2023-02-28T03:41:36;1.80;99.90
34726;DHT22;20951;50.818;4.344;2023-02-28T03:44:17;1.80;99.90
34726;DHT22;20951;50.818;4.344;2023-02-28T03:47:02;1.90;99.90
34726;DHT22;20951;50.818;4.344;2023-02-28T03:49:34;1.80;99.90
34726;DHT22;20951;50.818;4.344;2023-02-28T03:52:05;1.80;99.90
34726;DHT22;20951;50.818;4.344;2023-02-28T03:54:35;1.80;99.90
34726;DHT22;20951;50.818;4.344;2023-02-28T03:57:28;1.80;99.90
34726;DHT22;20951;50.818;4.344;2023-02-28T04:00:09;1.60;99.90
34726;DHT22;20951;50.818;4.344;2023-02-28T04:02:35;1.70;99.90
34726;DHT22;20951;50.818;4.344;2023-02-28T04:05:01;1.70;99.90
34726;DHT22;20951;50.818;4.344;2023-02-28T04:07:31;1.60;99.90
34726;DHT22;20951;50.818;4.344;2023-02-28T04:09:57;1.70;99.90
34726;DHT22;20951;50.818;4.344;2023-02-28T04:12:23;1.70;99.90
34726;DHT22;20951;50.818;4.344;2023-02-28T04:14:49;1.70;99.90
34726;DHT22;20951;50.818;4.344;2023-02-28T04:17:16;1.70;99.90
34726;DHT22;20951;50.818;4.344;2023-02-28T04:19:42;1.80;99.90
34726;DHT22;20951;50.818;4.344;2023-02-28T04:22:09;1.80;99.90
34726;DHT22;20951;50.818;4.344;2023-02-28T04:24:35;1.70;99.90
34726;DHT22;20951;50.818;4.344;2023-02-28T04:27:01;1.70;99.90
34726;DHT22;20951;50.818;4.344;2023-02-28T04:29:29;1.60;99.90
34726;DHT22;20951;50.818;4.344;2023-02-28T04:31:58;1.60;99.90
34726;DHT22;20951;50.818;4.344;2023-02-28T04:34:25;1.60;99.90
34726;DHT22;20951;50.818;4.344;2023-02-28T04:36:53;1.70;99.90
34726;DHT22;20951;50.818;4.344;2023-02-28T04:39:21;1.60;99.90
34726;DHT22;20951;50.818;4.344;2023-02-28T04:41:47;1.60;99.90
34726;DHT22;20951;50.818;4.344;2023-02-28T04:44:14;1.70;99.90
34726;DHT22;20951;50.818;4.344;2023-02-28T04:46:41;1.80;99.90
34726;DHT22;20951;50.818;4.344;2023-02-28T04:49:07;1.70;99.90
34726;DHT22;20951;50.818;4.344;2023-02-28T04:51:33;1.80;99.90
34726;DHT22;20951;50.818;4.344;2023-02-28T04:53:59;1.90;99.90
34726;DHT22;20951;50.818;4.344;2023-02-28T04:56:26;1.80;99.90
34726;DHT22;20951;50.818;4.344;2023-02-28T04:58:52;1.80;99.90
34726;DHT22;20951;50.818;4.344;2023-02-28T05:01:30;1.70;99.90
34726;DHT22;20951;50.818;4.344;2023-02-28T05:03:58;1.60;99.90
34726;DHT22;20951;50.818;4.344;2023-02-28T05:06:27;1.60;99.90
34726;DHT22;20951;50.818;4.344;2023-02-28T05:08:53;1.60;99.90
34726;DHT22;20951;50.818;4.344;2023-02-28T05:11:28;1.70;99.90
34726;DHT22;20951;50.818;4.344;2023-02-28T05:14:04;1.70;99.90
34726;DHT22;20951;50.818;4.344;2023-02-28T05:16:30;1.80;99.90
34726;DHT22;20951;50.818;4.344;2023-02-28T05:18:57;1.70;99.90
34726;DHT22;20951;50.818;4.344;2023-02-28T05:21:34;1.80;99.90
34726;DHT22;20951;50.818;4.344;2023-02-28T05:24:03;1.80;99.90
34726;DHT22;20951;50.818;4.344;2023-02-28T05:26:31;1.90;99.90
34726;DHT22;20951;50.818;4.344;2023-02-28T05:29:00;2.00;99.90
34726;DHT22;20951;50.818;4.344;2023-02-28T05:31:26;2.10;99.90
34726;DHT22;20951;50.818;4.344;2023-02-28T05:33:52;2.20;99.90
34726;DHT22;20951;50.818;4.344;2023-02-28T05:36:18;2.30;99.90
34726;DHT22;20951;50.818;4.344;2023-02-28T05:38:47;2.20;99.90
34726;DHT22;20951;50.818;4.344;2023-02-28T05:41:14;2.30;99.90
34726;DHT22;20951;50.818;4.344;2023-02-28T05:43:40;2.30;99.90
34726;DHT22;20951;50.818;4.344;2023-02-28T05:46:07;2.30;99.90
34726;DHT22;20951;50.818;4.344;2023-02-28T05:48:35;2.40;99.90
34726;DHT22;20951;50.818;4.344;2023-02-28T05:51:02;2.30;99.90
34726;DHT22;20951;50.818;4.344;2023-02-28T05:53:28;2.30;99.90
34726;DHT22;20951;50.818;4.344;2023-02-28T05:55:54;2.30;99.90
34726;DHT22;20951;50.818;4.344;2023-02-28T05:58:20;2.30;99.90
34726;DHT22;20951;50.818;4.344;2023-02-28T06:00:47;2.40;99.90
34726;DHT22;20951;50.818;4.344;2023-02-28T06:03:13;2.50;99.90
34726;DHT22;20951;50.818;4.344;2023-02-28T06:05:39;2.40;99.90
34726;DHT22;20951;50.818;4.344;2023-02-28T06:08:05;2.30;99.90
34726;DHT22;20951;50.818;4.344;2023-02-28T06:10:34;2.20;99.90
34726;DHT22;20951;50.818;4.344;2023-02-28T06:13:02;2.30;99.90
34726;DHT22;20951;50.818;4.344;2023-02-28T06:15:28;2.30;99.90
34726;DHT22;20951;50.818;4.344;2023-02-28T06:17:55;2.30;99.90
34726;DHT22;20951;50.818;4.344;2023-02-28T06:20:25;2.30;99.90
34726;DHT22;20951;50.818;4.344;2023-02-28T06:22:57;2.20;99.90
34726;DHT22;20951;50.818;4.344;2023-02-28T06:25:28;2.20;99.90
34726;DHT22;20951;50.818;4.344;2023-02-28T06:27:58;2.30;99.90
34726;DHT22;20951;50.818;4.344;2023-02-28T06:30:28;2.40;99.90
34726;DHT22;20951;50.818;4.344;2023-02-28T06:32:58;2.30;99.90
34726;DHT22;20951;50.818;4.344;2023-02-28T06:35:26;2.30;99.90
34726;DHT22;20951;50.818;4.344;2023-02-28T06:37:56;2.30;99.90
34726;DHT22;20951;50.818;4.344;2023-02-28T06:40:24;2.40;99.90
34726;DHT22;20951;50.818;4.344;2023-02-28T06:42:50;2.50;99.90
34726;DHT22;20951;50.818;4.344;2023-02-28T06:45:18;2.50;99.90
34726;DHT22;20951;50.818;4.344;2023-02-28T06:47:48;2.50;99.90
34726;DHT22;20951;50.818;4.344;2023-02-28T06:50:18;2.60;99.90
34726;DHT22;20951;50.818;4.344;2023-02-28T06:52:48;2.60;99.90
34726;DHT22;20951;50.818;4.344;2023-02-28T06:55:20;2.70;99.90
34726;DHT22;20951;50.818;4.344;2023-02-28T06:57:49;2.70;99.90
34726;DHT22;20951;50.818;4.344;2023-02-28T07:00:18;2.70;99.90
34726;DHT22;20951;50.818;4.344;2023-02-28T07:02:48;2.80;99.90
34726;DHT22;20951;50.818;4.344;2023-02-28T07:05:18;2.70;99.90
34726;DHT22;20951;50.818;4.344;2023-02-28T07:07:47;2.80;99.90
34726;DHT22;20951;50.818;4.344;2023-02-28T07:10:16;3.00;99.90
34726;DHT22;20951;50.818;4.344;2023-02-28T07:12:46;3.00;99.90
34726;DHT22;20951;50.818;4.344;2023-02-28T07:15:14;3.20;99.90
34726;DHT22;20951;50.818;4.344;2023-02-28T07:17:43;3.30;99.90
34726;DHT22;20951;50.818;4.344;2023-02-28T07:20:13;3.30;99.90
34726;DHT22;20951;50.818;4.344;2023-02-28T07:22:42;3.20;99.90
34726;DHT22;20951;50.818;4.344;2023-02-28T07:25:11;3.30;99.90
34726;DHT22;20951;50.818;4.344;2023-02-28T07:27:45;3.40;99.90
34726;DHT22;20951;50.818;4.344;2023-02-28T07:30:15;3.50;99.90
34726;DHT22;20951;50.818;4.344;2023-02-28T07:32:45;3.70;99.90
34726;DHT22;20951;50.818;4.344;2023-02-28T07:35:14;3.90;99.90
34726;DHT22;20951;50.818;4.344;2023-02-28T07:37:43;4.00;99.90
34726;DHT22;20951;50.818;4.344;2023-02-28T07:40:11;4.10;99.90
34726;DHT22;20951;50.818;4.344;2023-02-28T07:42:43;4.20;99.90
34726;DHT22;20951;50.818;4.344;2023-02-28T07:45:13;4.20;99.90
34726;DHT22;20951;50.818;4.344;2023-02-28T07:47:42;4.10;99.90
34726;DHT22;20951;50.818;4.344;2023-02-28T07:50:13;4.00;99.90
34726;DHT22;20951;50.818;4.344;2023-02-28T07:52:42;3.90;99.90
34726;DHT22;20951;50.818;4.344;2023-02-28T07:55:11;3.90;99.90
34726;DHT22;20951;50.818;4.344;2023-02-28T07:57:40;3.90;99.90
34726;DHT22;20951;50.818;4.344;2023-02-28T08:00:10;3.70;99.90
34726;DHT22;20951;50.818;4.344;2023-02-28T08:02:40;3.50;99.90
34726;DHT22;20951;50.818;4.344;2023-02-28T08:05:09;3.60;99.90
34726;DHT22;20951;50.818;4.344;2023-02-28T08:07:40;3.60;99.90
34726;DHT22;20951;50.818;4.344;2023-02-28T08:10:10;3.50;99.90
34726;DHT22;20951;50.818;4.344;2023-02-28T08:12:40;3.40;99.90
34726;DHT22;20951;50.818;4.344;2023-02-28T08:15:09;3.20;99.90
34726;DHT22;20951;50.818;4.344;2023-02-28T08:17:38;3.30;99.90
34726;DHT22;20951;50.818;4.344;2023-02-28T08:20:06;3.40;99.90
34726;DHT22;20951;50.818;4.344;2023-02-28T08:22:38;3.40;99.90
34726;DHT22;20951;50.818;4.344;2023-02-28T08:25:07;3.30;99.90
34726;DHT22;20951;50.818;4.344;2023-02-28T08:27:36;3.40;99.90
34726;DHT22;20951;50.818;4.344;2023-02-28T08:30:06;3.40;99.90
34726;DHT22;20951;50.818;4.344;2023-02-28T08:32:36;3.30;99.90
34726;DHT22;20951;50.818;4.344;2023-02-28T08:35:05;3.30;99.90
34726;DHT22;20951;50.818;4.344;2023-02-28T08:37:36;3.40;99.90
34726;DHT22;20951;50.818;4.344;2023-02-28T08:40:06;3.40;99.90
34726;DHT22;20951;50.818;4.344;2023-02-28T08:42:36;3.40;99.90
34726;DHT22;20951;50.818;4.344;2023-02-28T08:45:05;3.40;99.90
34726;DHT22;20951;50.818;4.344;2023-02-28T08:47:33;3.50;99.90
34726;DHT22;20951;50.818;4.344;2023-02-28T08:50:02;3.50;99.90
34726;DHT22;20951;50.818;4.344;2023-02-28T08:52:31;3.60;99.90
34726;DHT22;20951;50.818;4.344;2023-02-28T08:55:00;3.70;99.90
34726;DHT22;20951;50.818;4.344;2023-02-28T08:57:29;3.70;99.90
34726;DHT22;20951;50.818;4.344;2023-02-28T08:59:58;3.70;99.90
34726;DHT22;20951;50.818;4.344;2023-02-28T09:02:30;3.80;99.90
34726;DHT22;20951;50.818;4.344;2023-02-28T09:04:59;3.70;99.90
34726;DHT22;20951;50.818;4.344;2023-02-28T09:07:28;3.70;99.90
34726;DHT22;20951;50.818;4.344;2023-02-28T09:09:57;3.80;99.90
34726;DHT22;20951;50.818;4.344;2023-02-28T09:12:27;3.80;99.90
34726;DHT22;20951;50.818;4.344;2023-02-28T09:14:56;3.80;99.90
34726;DHT22;20951;50.818;4.344;2023-02-28T09:17:25;3.70;99.90
34726;DHT22;20951;50.818;4.344;2023-02-28T09:19:54;3.80;99.90
34726;DHT22;20951;50.818;4.344;2023-02-28T09:22:24;3.80;99.90
34726;DHT22;20951;50.818;4.344;2023-02-28T09:24:53;3.90;99.90
34726;DHT22;20951;50.818;4.344;2023-02-28T09:27:21;3.90;99.90
34726;DHT22;20951;50.818;4.344;2023-02-28T09:29:50;3.90;99.90
34726;DHT22;20951;50.818;4.344;2023-02-28T09:32:20;4.00;99.90
34726;DHT22;20951;50.818;4.344;2023-02-28T09:34:49;4.20;99.90
34726;DHT22;20951;50.818;4.344;2023-02-28T09:37:19;4.30;99.90
34726;DHT22;20951;50.818;4.344;2023-02-28T09:39:48;4.30;99.90
34726;DHT22;20951;50.818;4.344;2023-02-28T09:42:28;4.40;99.90
34726;DHT22;20951;50.818;4.344;2023-02-28T09:44:59;4.50;99.90
34726;DHT22;20951;50.818;4.344;2023-02-28T09:47:36;4.50;99.90
34726;DHT22;20951;50.818;4.344;2023-02-28T09:50:41;4.40;99.90
34726;DHT22;20951;50.818;4.344;2023-02-28T09:56:03;4.60;99.90
34726;DHT22;20951;50.818;4.344;2023-02-28T09:58:46;4.60;99.90
34726;DHT22;20951;50.818;4.344;2023-02-28T10:01:52;4.70;99.90
34726;DHT22;20951;50.818;4.344;2023-02-28T10:07:30;4.80;99.90
34726;DHT22;20951;50.818;4.344;2023-02-28T10:09:58;4.90;99.90
34726;DHT22;20951;50.818;4.344;2023-02-28T10:12:28;4.90;99.90
34726;DHT22;20951;50.818;4.344;2023-02-28T10:14:59;4.90;99.90
34726;DHT22;20951;50.818;4.344;2023-02-28T10:17:38;5.20;99.90
34726;DHT22;20951;50.818;4.344;2023-02-28T10:20:20;5.40;99.90
34726;DHT22;20951;50.818;4.344;2023-02-28T10:22:56;5.50;99.90
34726;DHT22;20951;50.818;4.344;2023-02-28T10:25:28;5.70;99.90
34726;DHT22;20951;50.818;4.344;2023-02-28T10:28:13;6.00;99.90
34726;DHT22;20951;50.818;4.344;2023-02-28T10:30:47;6.20;99.90
34726;DHT22;20951;50.818;4.344;2023-02-28T10:33:29;6.40;99.90
34726;DHT22;20951;50.818;4.344;2023-02-28T10:35:57;6.80;98.90
34726;DHT22;20951;50.818;4.344;2023-02-28T10:38:34;7.60;97.70
34726;DHT22;20951;50.818;4.344;2023-02-28T10:41:09;8.20;95.90
34726;DHT22;20951;50.818;4.344;2023-02-28T10:43:40;8.90;94.50
34726;DHT22;20951;50.818;4.344;2023-02-28T10:46:12;9.70;92.50
34726;DHT22;20951;50.818;4.344;2023-02-28T10:51:38;10.80;89.30
34726;DHT22;20951;50.818;4.344;2023-02-28T10:54:14;11.30;87.70
34726;DHT22;20951;50.818;4.344;2023-02-28T10:56:43;11.90;84.30
34726;DHT22;20951;50.818;4.344;2023-02-28T11:01:50;12.50;81.00
34726;DHT22;20951;50.818;4.344;2023-02-28T11:07:23;12.00;79.10
34726;DHT22;20951;50.818;4.344;2023-02-28T11:09:53;12.10;79.30
34726;DHT22;20951;50.818;4.344;2023-02-28T11:12:39;11.90;78.50
34726;DHT22;20951;50.818;4.344;2023-02-28T11:15:25;12.10;79.90
34726;DHT22;20951;50.818;4.344;2023-02-28T11:20:58;13.20;76.70
34726;DHT22;20951;50.818;4.344;2023-02-28T11:23:30;13.20;77.00
34726;DHT22;20951;50.818;4.344;2023-02-28T11:26:00;13.20;76.50
34726;DHT22;20951;50.818;4.344;2023-02-28T11:28:31;13.20;76.60
34726;DHT22;20951;50.818;4.344;2023-02-28T11:31:15;13.70;75.60
34726;DHT22;20951;50.818;4.344;2023-02-28T11:33:55;13.30;73.90
34726;DHT22;20951;50.818;4.344;2023-02-28T11:36:25;12.90;74.80
34726;DHT22;20951;50.818;4.344;2023-02-28T11:38:59;12.60;74.00
34726;DHT22;20951;50.818;4.344;2023-02-28T11:41:54;12.40;75.10
34726;DHT22;20951;50.818;4.344;2023-02-28T11:44:56;12.30;75.70
34726;DHT22;20951;50.818;4.344;2023-02-28T11:47:48;12.00;76.00
34726;DHT22;20951;50.818;4.344;2023-02-28T11:54:04;12.70;75.20
34726;DHT22;20951;50.818;4.344;2023-02-28T11:59:41;13.40;74.10
34726;DHT22;20951;50.818;4.344;2023-02-28T12:10:35;13.60;73.00
34726;DHT22;20951;50.818;4.344;2023-02-28T12:26:45;12.90;73.10
34726;DHT22;20951;50.818;4.344;2023-02-28T12:29:26;12.90;71.80
34726;DHT22;20951;50.818;4.344;2023-02-28T12:32:30;12.80;72.30
34726;DHT22;20951;50.818;4.344;2023-02-28T12:35:10;13.50;71.40
34726;DHT22;20951;50.818;4.344;2023-02-28T12:40:58;14.10;68.80
34726;DHT22;20951;50.818;4.344;2023-02-28T12:43:34;14.90;69.40
34726;DHT22;20951;50.818;4.344;2023-02-28T12:48:51;15.40;66.00
34726;DHT22;20951;50.818;4.344;2023-02-28T12:51:20;15.30;66.10
34726;DHT22;20951;50.818;4.344;2023-02-28T12:57:39;14.90;66.10
34726;DHT22;20951;50.818;4.344;2023-02-28T13:00:16;15.80;64.80
34726;DHT22;20951;50.818;4.344;2023-02-28T13:08:42;16.30;62.80
34726;DHT22;20951;50.818;4.344;2023-02-28T13:17:23;15.40;63.60
34726;DHT22;20951;50.818;4.344;2023-02-28T13:22:46;14.40;64.90
34726;DHT22;20951;50.818;4.344;2023-02-28T13:27:53;15.00;64.30
34726;DHT22;20951;50.818;4.344;2023-02-28T13:33:27;14.20;64.50
34726;DHT22;20951;50.818;4.344;2023-02-28T13:49:24;15.90;61.20
34726;DHT22;20951;50.818;4.344;2023-02-28T13:57:28;14.20;62.30
34726;DHT22;20951;50.818;4.344;2023-02-28T14:00:15;13.80;62.80
34726;DHT22;20951;50.818;4.344;2023-02-28T14:05:34;13.60;64.60
34726;DHT22;20951;50.818;4.344;2023-02-28T14:08:18;13.10;64.40
34726;DHT22;20951;50.818;4.344;2023-02-28T14:11:02;13.60;64.90
34726;DHT22;20951;50.818;4.344;2023-02-28T14:13:40;13.80;64.30
34726;DHT22;20951;50.818;4.344;2023-02-28T14:16:20;14.20;63.80
34726;DHT22;20951;50.818;4.344;2023-02-28T14:18:55;14.40;63.50
34726;DHT22;20951;50.818;4.344;2023-02-28T14:21:34;13.80;63.70
34726;DHT22;20951;50.818;4.344;2023-02-28T14:32:54;10.90;68.20
34726;DHT22;20951;50.818;4.344;2023-02-28T14:38:36;10.60;70.30
34726;DHT22;20951;50.818;4.344;2023-02-28T14:41:20;10.90;70.00
34726;DHT22;20951;50.818;4.344;2023-02-28T14:43:50;11.00;69.90
34726;DHT22;20951;50.818;4.344;2023-02-28T14:46:19;11.00;70.00
34726;DHT22;20951;50.818;4.344;2023-02-28T14:48:49;10.60;70.10
34726;DHT22;20951;50.818;4.344;2023-02-28T14:51:24;10.70;70.90
34726;DHT22;20951;50.818;4.344;2023-02-28T14:53:59;11.00;70.50
34726;DHT22;20951;50.818;4.344;2023-02-28T14:56:48;10.40;70.10
34726;DHT22;20951;50.818;4.344;2023-02-28T14:59:35;9.90;72.00
34726;DHT22;20951;50.818;4.344;2023-02-28T15:02:23;9.20;73.30
34726;DHT22;20951;50.818;4.344;2023-02-28T15:07:40;9.40;74.30
34726;DHT22;20951;50.818;4.344;2023-02-28T15:12:51;10.40;72.50
34726;DHT22;20951;50.818;4.344;2023-02-28T15:15:20;10.70;71.90
34726;DHT22;20951;50.818;4.344;2023-02-28T15:17:51;10.90;71.80
34726;DHT22;20951;50.818;4.344;2023-02-28T15:20:20;11.30;71.40
34726;DHT22;20951;50.818;4.344;2023-02-28T15:22:50;11.70;71.30
34726;DHT22;20951;50.818;4.344;2023-02-28T15:25:20;11.90;70.40
34726;DHT22;20951;50.818;4.344;2023-02-28T15:27:54;12.20;70.00
34726;DHT22;20951;50.818;4.344;2023-02-28T15:30:29;12.50;69.70
34726;DHT22;20951;50.818;4.344;2023-02-28T15:33:06;12.80;69.10
34726;DHT22;20951;50.818;4.344;2023-02-28T15:35:35;12.90;68.60
34726;DHT22;20951;50.818;4.344;2023-02-28T15:38:14;12.30;68.50
34726;DHT22;20951;50.818;4.344;2023-02-28T15:40:44;11.90;69.70
34726;DHT22;20951;50.818;4.344;2023-02-28T15:43:30;11.60;70.90
34726;DHT22;20951;50.818;4.344;2023-02-28T15:48:59;11.40;71.10
34726;DHT22;20951;50.818;4.344;2023-02-28T15:51:35;11.50;72.00
34726;DHT22;20951;50.818;4.344;2023-02-28T15:54:06;11.30;72.10
34726;DHT22;20951;50.818;4.344;2023-02-28T15:56:46;11.40;72.30
34726;DHT22;20951;50.818;4.344;2023-02-28T15:59:18;11.20;72.20
34726;DHT22;20951;50.818;4.344;2023-02-28T16:02:01;10.60;73.00
34726;DHT22;20951;50.818;4.344;2023-02-28T16:04:31;10.00;74.30
34726;DHT22;20951;50.818;4.344;2023-02-28T16:09:33;9.40;75.90
34726;DHT22;20951;50.818;4.344;2023-02-28T16:12:04;9.00;76.60
34726;DHT22;20951;50.818;4.344;2023-02-28T16:14:33;8.60;77.90
34726;DHT22;20951;50.818;4.344;2023-02-28T16:17:07;8.20;79.20
34726;DHT22;20951;50.818;4.344;2023-02-28T16:19:41;7.90;79.90
34726;DHT22;20951;50.818;4.344;2023-02-28T16:22:10;7.60;80.60
34726;DHT22;20951;50.818;4.344;2023-02-28T16:24:39;7.40;81.40
34726;DHT22;20951;50.818;4.344;2023-02-28T16:27:15;7.30;81.80
34726;DHT22;20951;50.818;4.344;2023-02-28T16:29:44;7.10;82.20
34726;DHT22;20951;50.818;4.344;2023-02-28T16:32:14;6.90;83.30
34726;DHT22;20951;50.818;4.344;2023-02-28T16:34:44;6.90;84.30
34726;DHT22;20951;50.818;4.344;2023-02-28T16:37:14;6.90;84.40
34726;DHT22;20951;50.818;4.344;2023-02-28T16:39:42;6.80;85.00
34726;DHT22;20951;50.818;4.344;2023-02-28T16:42:28;6.70;85.80
34726;DHT22;20951;50.818;4.344;2023-02-28T16:44:56;6.70;86.20
34726;DHT22;20951;50.818;4.344;2023-02-28T16:47:25;6.60;86.70
34726;DHT22;20951;50.818;4.344;2023-02-28T16:49:54;6.60;87.00
34726;DHT22;20951;50.818;4.344;2023-02-28T16:52:23;6.60;87.10
34726;DHT22;20951;50.818;4.344;2023-02-28T16:54:50;6.50;87.50
34726;DHT22;20951;50.818;4.344;2023-02-28T16:57:23;6.60;87.50
34726;DHT22;20951;50.818;4.344;2023-02-28T16:59:50;6.50;87.70
34726;DHT22;20951;50.818;4.344;2023-02-28T17:02:18;6.50;88.10
34726;DHT22;20951;50.818;4.344;2023-02-28T17:04:47;6.50;88.20
34726;DHT22;20951;50.818;4.344;2023-02-28T17:07:15;6.40;88.60
34726;DHT22;20951;50.818;4.344;2023-02-28T17:09:44;6.30;89.40
34726;DHT22;20951;50.818;4.344;2023-02-28T17:12:11;6.30;89.80
34726;DHT22;20951;50.818;4.344;2023-02-28T17:14:37;6.30;90.00
34726;DHT22;20951;50.818;4.344;2023-02-28T17:17:07;6.30;90.00
34726;DHT22;20951;50.818;4.344;2023-02-28T17:19:35;6.30;90.30
34726;DHT22;20951;50.818;4.344;2023-02-28T17:22:03;6.10;90.50
34726;DHT22;20951;50.818;4.344;2023-02-28T17:24:30;6.00;90.80
34726;DHT22;20951;50.818;4.344;2023-02-28T17:26:56;6.00;91.10
34726;DHT22;20951;50.818;4.344;2023-02-28T17:29:22;6.10;90.80
34726;DHT22;20951;50.818;4.344;2023-02-28T17:31:50;6.10;91.00
34726;DHT22;20951;50.818;4.344;2023-02-28T17:34:16;6.00;91.40
34726;DHT22;20951;50.818;4.344;2023-02-28T17:36:48;6.00;91.10
34726;DHT22;20951;50.818;4.344;2023-02-28T17:39:16;6.00;91.30
34726;DHT22;20951;50.818;4.344;2023-02-28T17:41:50;6.00;91.40
34726;DHT22;20951;50.818;4.344;2023-02-28T17:44:17;6.00;91.50
34726;DHT22;20951;50.818;4.344;2023-02-28T17:46:45;6.00;91.60
34726;DHT22;20951;50.818;4.344;2023-02-28T17:49:11;6.00;91.80
34726;DHT22;20951;50.818;4.344;2023-02-28T17:51:37;6.00;91.80
34726;DHT22;20951;50.818;4.344;2023-02-28T17:54:03;6.00;91.80
34726;DHT22;20951;50.818;4.344;2023-02-28T17:56:30;6.00;91.90
34726;DHT22;20951;50.818;4.344;2023-02-28T17:58:57;6.00;92.10
34726;DHT22;20951;50.818;4.344;2023-02-28T18:01:24;5.90;92.00
34726;DHT22;20951;50.818;4.344;2023-02-28T18:03:55;5.80;92.30
34726;DHT22;20951;50.818;4.344;2023-02-28T18:06:25;5.90;92.20
34726;DHT22;20951;50.818;4.344;2023-02-28T18:08:53;5.90;92.30
34726;DHT22;20951;50.818;4.344;2023-02-28T18:11:21;5.90;92.20
34726;DHT22;20951;50.818;4.344;2023-02-28T18:13:49;5.90;92.90
34726;DHT22;20951;50.818;4.344;2023-02-28T18:16:16;5.80;92.60
34726;DHT22;20951;50.818;4.344;2023-02-28T18:18:43;5.70;92.90
34726;DHT22;20951;50.818;4.344;2023-02-28T18:21:11;5.70;93.20
34726;DHT22;20951;50.818;4.344;2023-02-28T18:23:37;5.70;93.10
34726;DHT22;20951;50.818;4.344;2023-02-28T18:26:13;5.70;93.10
34726;DHT22;20951;50.818;4.344;2023-02-28T18:28:39;5.70;93.30
34726;DHT22;20951;50.818;4.344;2023-02-28T18:31:12;5.70;93.40
34726;DHT22;20951;50.818;4.344;2023-02-28T18:33:44;5.70;93.60
34726;DHT22;20951;50.818;4.344;2023-02-28T18:36:12;5.70;93.60
34726;DHT22;20951;50.818;4.344;2023-02-28T18:38:38;5.60;93.40